createdAt,value
2019-04-14T00:00:40.483Z,19.00
2019-04-14T00:03:15.273Z,18.90
2019-04-14T00:05:43.032Z,18.80
2019-04-14T00:08:11.072Z,19.00
2019-04-14T00:10:40.020Z,19.00
2019-04-14T00:13:07.265Z,18.90
2019-04-14T00:15:40.477Z,18.90
2019-04-14T00:18:03.836Z,18.90
2019-04-14T00:20:31.529Z,18.90
2019-04-14T00:22:59.819Z,18.90
2019-04-14T00:25:28.340Z,18.90
2019-04-14T00:27:56.726Z,18.90
2019-04-14T00:30:25.744Z,18.90
2019-04-14T00:32:59.497Z,18.90
2019-04-14T00:35:34.217Z,18.90
2019-04-14T00:38:21.790Z,19.00
2019-04-14T00:40:58.545Z,18.80
2019-04-14T00:43:44.005Z,18.90
2019-04-14T00:46:12.782Z,18.90
2019-04-14T00:48:40.933Z,19.00
2019-04-14T00:51:09.164Z,18.90
2019-04-14T00:53:36.442Z,19.00
2019-04-14T00:56:04.698Z,18.80
2019-04-14T00:58:32.219Z,18.90
2019-04-14T01:01:00.445Z,18.90
2019-04-14T01:03:28.694Z,18.90
2019-04-14T01:05:56.773Z,19.00
2019-04-14T01:08:26.777Z,18.90
2019-04-14T01:10:54.071Z,18.80
2019-04-14T01:13:20.746Z,18.80
2019-04-14T01:15:57.808Z,18.80
2019-04-14T01:18:16.832Z,18.80
2019-04-14T01:20:44.879Z,18.80
2019-04-14T01:23:12.883Z,18.80
2019-04-14T01:25:40.968Z,18.80
2019-04-14T01:28:08.875Z,18.80
2019-04-14T01:30:35.817Z,18.90
2019-04-14T01:33:03.262Z,18.80
2019-04-14T01:35:31.326Z,18.90
2019-04-14T01:37:59.351Z,18.90
2019-04-14T01:40:27.091Z,18.80
2019-04-14T01:42:54.912Z,18.90
2019-04-14T01:45:23.133Z,18.90
2019-04-14T01:47:51.009Z,18.90
2019-04-14T01:50:19.778Z,18.90
2019-04-14T01:52:52.206Z,19.00
2019-04-14T01:55:22.314Z,19.00
2019-04-14T01:58:03.240Z,19.50
2019-04-14T02:00:32.049Z,19.00
2019-04-14T02:02:59.730Z,18.90
2019-04-14T02:05:27.777Z,18.90
2019-04-14T02:07:55.780Z,19.00
2019-04-14T02:10:23.884Z,19.10
2019-04-14T02:12:51.791Z,19.00
2019-04-14T02:15:19.983Z,19.00
2019-04-14T02:17:48.046Z,19.10
2019-04-14T02:20:16.325Z,19.10
2019-04-14T02:22:44.090Z,19.10
2019-04-14T02:25:12.026Z,19.10
2019-04-14T02:27:38.902Z,19.10
2019-04-14T02:30:07.257Z,19.20
2019-04-14T02:33:05.456Z,19.20
2019-04-14T02:38:02.048Z,19.20
2019-04-14T02:40:39.316Z,19.30
2019-04-14T02:45:34.851Z,19.20
2019-04-14T02:48:03.347Z,19.30
2019-04-14T02:53:02.466Z,19.20
2019-04-14T02:55:32.434Z,19.30
2019-04-14T02:58:03.811Z,19.40
2019-04-14T03:00:37.141Z,19.90
2019-04-14T03:02:56.959Z,19.30
2019-04-14T03:05:26.732Z,19.20
2019-04-14T03:08:00.424Z,19.60
2019-04-14T03:10:28.082Z,19.40
2019-04-14T03:13:01.854Z,19.20
2019-04-14T03:18:00.528Z,19.30
2019-04-14T03:20:25.930Z,19.40
2019-04-14T03:23:08.848Z,19.30
2019-04-14T03:25:37.586Z,19.30
2019-04-14T03:28:40.269Z,19.30
2019-04-14T03:31:21.320Z,19.30
2019-04-14T03:33:49.409Z,19.20
2019-04-14T03:36:16.677Z,19.20
2019-04-14T03:38:24.793Z,19.30
2019-04-14T03:40:58.508Z,19.70
2019-04-14T03:46:09.488Z,19.30
2019-04-14T03:50:55.623Z,19.50
2019-04-14T03:53:22.196Z,19.50
2019-04-14T03:55:55.513Z,19.50
2019-04-14T03:58:18.218Z,19.50
2019-04-14T04:00:46.459Z,19.30
2019-04-14T04:03:15.225Z,19.30
2019-04-14T04:05:42.042Z,19.30
2019-04-14T04:08:09.347Z,19.30
2019-04-14T04:10:44.358Z,19.30
2019-04-14T04:13:13.348Z,19.50
2019-04-14T04:15:41.193Z,19.40
2019-04-14T04:18:11.235Z,19.40
2019-04-14T04:20:52.415Z,19.40
2019-04-14T04:23:31.394Z,19.60
2019-04-14T04:26:10.424Z,19.30
2019-04-14T04:28:56.238Z,19.60
2019-04-14T04:31:30.738Z,19.30
2019-04-14T04:34:16.723Z,19.30
2019-04-14T04:36:48.762Z,19.30
2019-04-14T04:39:21.519Z,19.30
2019-04-14T04:41:49.334Z,19.20
2019-04-14T04:44:16.097Z,19.20
2019-04-14T04:46:43.816Z,19.20
2019-04-14T04:49:16.440Z,19.10
2019-04-14T04:51:40.025Z,18.90
2019-04-14T04:54:08.079Z,18.90
2019-04-14T04:56:36.131Z,18.80
2019-04-14T04:59:04.041Z,18.70
2019-04-14T05:01:31.777Z,18.40
2019-04-14T05:03:58.637Z,18.40
2019-04-14T05:06:59.816Z,18.00
2019-04-14T05:09:40.583Z,17.60
2019-04-14T05:12:18.113Z,17.60
2019-04-14T05:14:50.112Z,17.50
2019-04-14T05:17:19.097Z,17.60
2019-04-14T05:19:45.930Z,17.30
2019-04-14T05:22:15.953Z,17.00
2019-04-14T05:24:41.796Z,17.00
2019-04-14T05:27:10.594Z,16.70
2019-04-14T05:29:38.586Z,16.80
2019-04-14T05:32:06.568Z,16.40
2019-04-14T05:34:34.559Z,16.50
2019-04-14T05:37:02.888Z,16.20
2019-04-14T05:39:30.765Z,16.10
2019-04-14T05:42:06.577Z,16.20
2019-04-14T05:44:29.642Z,16.00
2019-04-14T05:46:55.751Z,16.10
2019-04-14T05:49:31.532Z,15.90
2019-04-14T05:51:54.392Z,15.90
2019-04-14T05:54:21.250Z,15.90
2019-04-14T05:56:49.416Z,15.50
2019-04-14T05:59:16.418Z,15.70
2019-04-14T06:01:45.006Z,15.60
2019-04-14T06:04:13.503Z,15.40
2019-04-14T06:06:40.414Z,15.40
2019-04-14T06:09:08.277Z,15.50
2019-04-14T06:11:38.288Z,15.60
2019-04-14T06:14:06.864Z,15.80
2019-04-14T06:16:35.163Z,15.60
2019-04-14T06:19:01.979Z,15.70
2019-04-14T06:21:29.166Z,15.90
2019-04-14T06:23:55.833Z,15.90
2019-04-14T06:26:22.910Z,16.00
2019-04-14T06:28:50.098Z,15.70
2019-04-14T06:31:35.815Z,15.70
2019-04-14T06:34:04.988Z,15.60
2019-04-14T06:36:50.723Z,15.50
2019-04-14T06:39:29.335Z,15.40
2019-04-14T06:41:58.107Z,15.40
2019-04-14T06:44:25.084Z,15.10
2019-04-14T06:46:52.114Z,14.80
2019-04-14T06:49:19.114Z,14.70
2019-04-14T06:51:45.994Z,14.60
2019-04-14T06:54:12.946Z,14.40
2019-04-14T06:56:39.864Z,14.20
2019-04-14T06:59:07.344Z,14.00
2019-04-14T07:01:35.636Z,14.10
2019-04-14T07:04:02.467Z,14.10
2019-04-14T07:06:29.380Z,13.80
2019-04-14T07:08:56.200Z,13.90
2019-04-14T07:11:23.011Z,13.80
2019-04-14T07:13:50.018Z,13.90
2019-04-14T07:16:17.133Z,14.10
2019-04-14T07:18:44.368Z,14.10
2019-04-14T07:21:11.505Z,14.40
2019-04-14T07:23:38.307Z,13.50
2019-04-14T07:26:05.533Z,14.00
2019-04-14T07:28:32.718Z,13.80
2019-04-14T07:31:12.153Z,13.50
2019-04-14T07:33:56.163Z,13.40
2019-04-14T07:36:37.251Z,13.60
2019-04-14T07:39:19.461Z,13.30
2019-04-14T07:41:50.769Z,13.20
2019-04-14T07:44:19.606Z,13.10
2019-04-14T07:46:54.317Z,13.20
2019-04-14T07:49:22.993Z,13.20
2019-04-14T07:51:55.105Z,13.00
2019-04-14T07:54:24.868Z,13.80
2019-04-14T07:57:06.050Z,13.10
2019-04-14T07:59:34.937Z,12.60
2019-04-14T08:02:06.653Z,12.80
2019-04-14T08:04:35.380Z,12.90
2019-04-14T08:07:02.301Z,12.80
2019-04-14T08:09:29.124Z,12.70
2019-04-14T08:11:55.902Z,12.70
2019-04-14T08:14:24.645Z,12.90
2019-04-14T08:16:51.471Z,12.40
2019-04-14T08:19:18.270Z,12.70
2019-04-14T08:21:45.387Z,13.10
2019-04-14T08:24:13.173Z,12.70
2019-04-14T08:26:40.249Z,13.00
2019-04-14T08:29:07.287Z,12.90
2019-04-14T08:31:34.501Z,13.60
2019-04-14T08:34:01.368Z,13.10
2019-04-14T08:36:28.295Z,13.70
2019-04-14T08:38:55.363Z,13.70
2019-04-14T08:41:25.227Z,13.60
2019-04-14T08:43:57.108Z,13.70
2019-04-14T08:46:31.818Z,13.40
2019-04-14T08:49:00.719Z,12.90
2019-04-14T08:51:29.814Z,12.30
2019-04-14T08:54:08.743Z,13.00
2019-04-14T08:56:43.565Z,12.80
2019-04-14T08:59:18.290Z,12.50
2019-04-14T09:01:47.006Z,12.50
2019-04-14T09:04:15.745Z,12.10
2019-04-14T09:06:44.791Z,12.30
2019-04-14T09:09:16.608Z,12.40
2019-04-14T09:11:45.118Z,12.30
2019-04-14T09:14:12.239Z,12.50
2019-04-14T09:16:42.102Z,12.20
2019-04-14T09:19:09.194Z,12.20
2019-04-14T09:21:36.128Z,12.40
2019-04-14T09:24:03.121Z,11.80
2019-04-14T09:26:30.054Z,12.10
2019-04-14T09:28:56.841Z,12.30
2019-04-14T09:31:23.793Z,12.90
2019-04-14T09:33:50.612Z,12.50
2019-04-14T09:36:17.727Z,12.50
2019-04-14T09:38:44.646Z,12.00
2019-04-14T09:41:11.476Z,12.10
2019-04-14T09:43:38.633Z,11.90
2019-04-14T09:46:07.322Z,11.90
2019-04-14T09:48:34.353Z,12.50
2019-04-14T09:51:05.136Z,12.60
2019-04-14T09:53:30.331Z,12.40
2019-04-14T09:55:57.334Z,11.60
2019-04-14T09:58:24.088Z,11.50
2019-04-14T10:00:52.659Z,12.40
2019-04-14T10:03:20.384Z,12.90
2019-04-14T10:05:47.354Z,11.90
2019-04-14T10:08:14.402Z,12.40
2019-04-14T10:10:41.870Z,12.70
2019-04-14T10:13:10.030Z,13.10
2019-04-14T10:15:37.076Z,12.50
2019-04-14T10:18:04.223Z,12.30
2019-04-14T10:20:31.295Z,12.40
2019-04-14T10:22:58.517Z,12.50
2019-04-14T10:25:25.593Z,12.20
2019-04-14T10:27:52.486Z,12.10
2019-04-14T10:30:19.449Z,12.50
2019-04-14T10:32:46.222Z,11.80
2019-04-14T10:35:13.232Z,12.00
2019-04-14T10:37:40.280Z,12.30
2019-04-14T10:40:07.426Z,12.80
2019-04-14T10:42:34.257Z,11.30
2019-04-14T10:45:01.428Z,11.50
2019-04-14T10:47:28.465Z,11.80
2019-04-14T10:49:55.735Z,12.00
2019-04-14T10:52:23.080Z,11.70
2019-04-14T10:54:50.109Z,12.50
2019-04-14T10:57:17.094Z,13.00
2019-04-14T10:59:44.403Z,12.50
2019-04-14T11:02:11.448Z,12.20
2019-04-14T11:04:38.697Z,11.70
2019-04-14T11:07:10.512Z,11.80
2019-04-14T11:09:37.338Z,11.90
2019-04-14T11:12:04.548Z,11.80
2019-04-14T11:14:32.182Z,12.10
2019-04-14T11:16:59.515Z,11.40
2019-04-14T11:19:26.530Z,10.20
2019-04-14T11:21:53.632Z,10.70
2019-04-14T11:24:24.044Z,11.00
2019-04-14T11:26:51.434Z,10.90
2019-04-14T11:29:18.682Z,10.90
2019-04-14T11:31:50.575Z,11.90
2019-04-14T11:34:19.421Z,11.40
2019-04-14T11:36:57.638Z,11.50
2019-04-14T11:39:27.363Z,11.80
2019-04-14T11:41:55.118Z,11.60
2019-04-14T11:44:22.120Z,11.50
2019-04-14T11:46:49.093Z,11.90
2019-04-14T11:49:16.355Z,12.00
2019-04-14T11:51:54.658Z,12.20
2019-04-14T11:54:12.682Z,11.90
2019-04-14T11:56:39.887Z,11.90
2019-04-14T11:59:07.290Z,12.20
2019-04-14T12:01:36.183Z,10.80
2019-04-14T12:04:08.144Z,10.60
2019-04-14T12:06:36.838Z,11.00
2019-04-14T12:09:13.353Z,10.80
2019-04-14T12:11:42.299Z,10.80
2019-04-14T12:14:09.325Z,11.30
2019-04-14T12:16:36.584Z,10.70
2019-04-14T12:19:03.622Z,10.80
2019-04-14T12:21:30.664Z,11.00
2019-04-14T12:23:57.670Z,10.50
2019-04-14T12:26:24.900Z,9.70
2019-04-14T12:28:52.000Z,9.90
2019-04-14T12:31:30.975Z,9.30
2019-04-14T12:33:58.073Z,9.50
2019-04-14T12:36:25.123Z,9.80
2019-04-14T12:38:52.064Z,10.80
2019-04-14T12:41:22.041Z,10.60
2019-04-14T12:43:54.764Z,10.70
2019-04-14T12:46:32.602Z,10.50
2019-04-14T12:49:01.455Z,10.20
2019-04-14T12:51:33.404Z,10.00
2019-04-14T12:54:00.151Z,10.50
2019-04-14T12:56:29.281Z,9.90
2019-04-14T12:59:01.301Z,9.90
2019-04-14T13:01:30.397Z,9.80
2019-04-14T13:03:57.546Z,9.70
2019-04-14T13:06:24.620Z,9.80
2019-04-14T13:08:54.102Z,10.70
2019-04-14T13:11:21.164Z,10.50
2019-04-14T13:13:48.652Z,10.10
2019-04-14T13:16:15.839Z,10.70
2019-04-14T13:18:42.899Z,9.50
2019-04-14T13:21:10.042Z,9.30
2019-04-14T13:23:37.485Z,9.10
2019-04-14T13:26:04.631Z,9.30
2019-04-14T13:28:31.635Z,9.50
2019-04-14T13:30:59.234Z,9.30
2019-04-14T13:33:26.488Z,9.90
2019-04-14T13:35:53.654Z,9.40
2019-04-14T13:38:20.689Z,10.30
2019-04-14T13:40:48.242Z,10.00
2019-04-14T13:43:15.419Z,10.10
2019-04-14T13:45:44.297Z,10.00
2019-04-14T13:48:12.429Z,9.70
2019-04-14T13:50:39.999Z,9.90
2019-04-14T13:53:06.951Z,9.30
2019-04-14T13:55:33.998Z,9.00
2019-04-14T13:58:01.130Z,9.20
2019-04-14T14:00:28.695Z,9.20
2019-04-14T14:02:55.845Z,9.70
2019-04-14T14:05:22.913Z,10.30
2019-04-14T14:07:49.884Z,10.40
2019-04-14T14:10:17.093Z,10.60
2019-04-14T14:12:57.875Z,9.70
2019-04-14T14:15:26.883Z,10.10
2019-04-14T14:18:12.724Z,9.80
2019-04-14T14:20:47.034Z,10.10
2019-04-14T14:23:16.035Z,10.40
2019-04-14T14:25:46.094Z,10.40
2019-04-14T14:28:13.093Z,10.50
2019-04-14T14:30:40.972Z,10.40
2019-04-14T14:33:09.143Z,10.30
2019-04-14T14:35:37.830Z,9.90
2019-04-14T14:38:05.177Z,10.00
2019-04-14T14:40:32.230Z,10.40
2019-04-14T14:43:00.487Z,10.40
2019-04-14T14:45:41.704Z,10.70
2019-04-14T14:48:20.384Z,10.50
2019-04-14T14:51:06.329Z,10.70
2019-04-14T14:53:34.246Z,10.70
2019-04-14T14:56:01.130Z,10.60
2019-04-14T14:58:28.348Z,10.20
2019-04-14T15:00:55.375Z,10.40
2019-04-14T15:03:22.338Z,10.50
2019-04-14T15:05:49.218Z,10.50
2019-04-14T15:08:16.205Z,10.70
2019-04-14T15:10:42.973Z,10.50
2019-04-14T15:13:09.917Z,10.50
2019-04-14T15:15:36.931Z,10.60
2019-04-14T15:18:03.820Z,10.50
2019-04-14T15:20:31.162Z,10.80
2019-04-14T15:22:58.197Z,10.80
2019-04-14T15:25:25.527Z,10.90
2019-04-14T15:27:52.567Z,10.70
2019-04-14T15:30:23.024Z,10.60
2019-04-14T15:32:50.247Z,10.90
2019-04-14T15:35:17.198Z,11.30
2019-04-14T15:37:44.235Z,10.90
2019-04-14T15:40:11.624Z,11.00
2019-04-14T15:42:38.428Z,10.90
2019-04-14T15:45:05.880Z,11.00
2019-04-14T15:47:32.816Z,11.00
2019-04-14T15:49:59.780Z,11.00
2019-04-14T15:52:26.838Z,10.90
2019-04-14T15:54:54.367Z,11.00
2019-04-14T15:57:25.713Z,11.50
2019-04-14T15:59:54.836Z,11.90
2019-04-14T16:02:35.578Z,11.30
2019-04-14T16:05:24.226Z,11.40
2019-04-14T16:07:53.222Z,11.40
2019-04-14T16:10:24.532Z,11.30
2019-04-14T16:13:11.199Z,11.90
2019-04-14T16:15:56.973Z,11.30
2019-04-14T16:18:31.468Z,11.40
2019-04-14T16:20:58.531Z,11.40
2019-04-14T16:23:25.619Z,11.40
2019-04-14T16:25:57.009Z,11.40
2019-04-14T16:28:25.900Z,11.70
2019-04-14T16:30:56.122Z,11.70
2019-04-14T16:33:24.951Z,11.70
2019-04-14T16:35:52.710Z,11.80
2019-04-14T16:38:19.720Z,11.90
2019-04-14T16:40:46.550Z,11.90
2019-04-14T16:43:13.803Z,12.00
2019-04-14T16:45:40.745Z,12.10
2019-04-14T16:48:07.689Z,12.20
2019-04-14T16:50:34.853Z,12.30
2019-04-14T16:53:09.181Z,12.30
2019-04-14T16:55:56.396Z,12.30
2019-04-14T16:58:41.447Z,12.10
2019-04-14T17:01:13.000Z,12.40
2019-04-14T17:03:40.123Z,12.60
2019-04-14T17:06:07.132Z,12.70
2019-04-14T17:08:34.101Z,12.70
2019-04-14T17:11:01.118Z,12.70
2019-04-14T17:13:30.270Z,12.80
2019-04-14T17:16:02.129Z,12.90
2019-04-14T17:18:30.909Z,13.10
2019-04-14T17:21:03.147Z,13.10
2019-04-14T17:23:43.945Z,13.30
2019-04-14T17:26:29.115Z,13.10
2019-04-14T17:29:16.449Z,13.50
2019-04-14T17:31:49.110Z,13.40
2019-04-14T17:34:27.214Z,13.60
2019-04-14T17:36:56.213Z,13.70
2019-04-14T17:39:25.554Z,13.70
2019-04-14T17:41:54.507Z,13.90
2019-04-14T17:44:26.406Z,14.00
2019-04-14T17:47:14.208Z,14.00
2019-04-14T17:49:42.958Z,14.20
2019-04-14T17:52:31.181Z,14.20
2019-04-14T17:55:05.412Z,14.30
2019-04-14T17:57:50.876Z,14.40
2019-04-14T18:00:26.170Z,14.40
2019-04-14T18:02:55.262Z,14.40
2019-04-14T18:05:29.892Z,14.50
2019-04-14T18:07:58.980Z,14.60
2019-04-14T18:10:40.259Z,14.80
2019-04-14T18:13:24.597Z,14.80
2019-04-14T18:16:07.500Z,15.30
2019-04-14T18:18:53.330Z,14.80
2019-04-14T18:21:20.537Z,15.00
2019-04-14T18:23:47.476Z,15.00
2019-04-14T18:26:15.136Z,15.00
2019-04-14T18:28:53.806Z,15.00
2019-04-14T18:31:31.651Z,15.10
2019-04-14T18:34:12.468Z,15.20
2019-04-14T18:36:59.822Z,15.20
2019-04-14T18:39:32.765Z,15.20
2019-04-14T18:42:02.018Z,15.20
2019-04-14T18:44:40.023Z,15.30
2019-04-14T18:47:25.715Z,15.30
2019-04-14T18:50:00.128Z,15.10
2019-04-14T18:52:32.178Z,15.30
2019-04-14T18:55:04.160Z,15.30
2019-04-14T18:57:35.612Z,15.40
2019-04-14T19:00:11.143Z,15.40
2019-04-14T19:02:40.030Z,15.50
2019-04-14T19:05:07.268Z,15.40
2019-04-14T19:07:37.805Z,15.50
2019-04-14T19:10:06.284Z,15.40
2019-04-14T19:12:35.379Z,15.80
2019-04-14T19:15:19.522Z,15.40
2019-04-14T19:17:48.307Z,15.40
2019-04-14T19:20:17.006Z,15.60
2019-04-14T19:22:44.246Z,15.80
2019-04-14T19:25:11.599Z,15.70
2019-04-14T19:27:38.678Z,15.80
2019-04-14T19:30:06.355Z,15.80
2019-04-14T19:32:33.697Z,15.80
2019-04-14T19:35:00.801Z,15.80
2019-04-14T19:37:29.077Z,15.90
2019-04-14T19:39:56.246Z,16.00
2019-04-14T19:42:23.318Z,16.00
2019-04-14T19:44:51.644Z,16.10
2019-04-14T19:47:18.802Z,16.10
2019-04-14T19:49:45.791Z,16.10
2019-04-14T19:52:12.987Z,16.40
2019-04-14T19:54:40.244Z,16.40
2019-04-14T19:57:07.398Z,16.40
2019-04-14T19:59:34.634Z,16.90
2019-04-14T20:02:01.683Z,16.40
2019-04-14T20:04:29.771Z,16.50
2019-04-14T20:06:58.945Z,16.60
2019-04-14T20:09:30.610Z,16.50
2019-04-14T20:11:55.150Z,16.60
2019-04-14T20:14:23.256Z,16.60
2019-04-14T20:16:52.141Z,16.70
2019-04-14T20:19:26.796Z,16.70
2019-04-14T20:21:55.761Z,16.70
2019-04-14T20:24:33.783Z,16.60
2019-04-14T20:27:05.828Z,16.80
2019-04-14T20:29:40.847Z,16.70
2019-04-14T20:32:15.711Z,16.80
2019-04-14T20:34:42.731Z,16.80
2019-04-14T20:37:10.201Z,16.80
2019-04-14T20:39:37.219Z,16.70
2019-04-14T20:42:05.705Z,16.80
2019-04-14T20:44:33.775Z,16.90
2019-04-14T20:47:01.146Z,16.30
2019-04-14T20:49:41.517Z,16.80
2019-04-14T20:52:08.807Z,16.90
2019-04-14T20:54:36.127Z,17.00
2019-04-14T20:57:03.068Z,16.90
2019-04-14T20:59:31.372Z,17.00
2019-04-14T21:02:00.674Z,17.00
2019-04-14T21:04:41.679Z,17.00
2019-04-14T21:07:19.047Z,17.10
2019-04-14T21:09:50.834Z,17.00
2019-04-14T21:12:22.442Z,16.90
2019-04-14T21:14:57.727Z,17.00
2019-04-14T21:17:29.315Z,16.90
2019-04-14T21:20:14.476Z,17.00
2019-04-14T21:23:02.057Z,17.00
2019-04-14T21:25:59.706Z,17.00
2019-04-14T21:28:25.815Z,17.00
2019-04-14T21:30:55.267Z,17.00
2019-04-14T21:33:41.134Z,17.10
2019-04-14T21:36:13.227Z,17.10
2019-04-14T21:38:48.350Z,17.10
2019-04-14T21:41:19.949Z,17.10
2019-04-14T21:43:47.063Z,17.10
2019-04-14T21:46:13.852Z,17.20
2019-04-14T21:48:42.367Z,17.30
2019-04-14T21:51:09.715Z,17.40
2019-04-14T21:53:36.909Z,17.50
2019-04-14T21:56:13.422Z,17.50
2019-04-14T21:58:51.962Z,17.50
2019-04-14T22:01:42.155Z,17.60
2019-04-14T22:04:22.555Z,17.60
2019-04-14T22:06:54.359Z,17.70
2019-04-14T22:09:23.238Z,17.80
2019-04-14T22:11:50.245Z,17.80
2019-04-14T22:14:17.226Z,17.80
2019-04-14T22:16:44.152Z,17.90
2019-04-14T22:19:11.124Z,18.00
2019-04-14T22:21:38.065Z,17.90
2019-04-14T22:24:04.895Z,18.50
2019-04-14T22:26:31.849Z,18.50
2019-04-14T22:28:58.806Z,18.00
2019-04-14T22:31:25.608Z,18.00
2019-04-14T22:33:52.465Z,18.00
2019-04-14T22:36:19.433Z,18.00
2019-04-14T22:38:46.346Z,18.10
2019-04-14T22:41:13.498Z,18.10
2019-04-14T22:43:40.289Z,18.10
2019-04-14T22:46:07.144Z,18.10
2019-04-14T22:48:33.929Z,18.20
2019-04-14T22:51:01.247Z,18.10
2019-04-14T22:53:28.029Z,18.80
2019-04-14T22:55:56.640Z,18.20
2019-04-14T22:58:23.512Z,18.40
2019-04-14T23:00:55.044Z,18.20
2019-04-14T23:03:42.129Z,18.30
2019-04-14T23:06:29.645Z,18.50
2019-04-14T23:09:01.246Z,18.50
2019-04-14T23:11:41.147Z,18.60
2019-04-14T23:14:19.237Z,18.50
2019-04-14T23:16:56.751Z,18.70
2019-04-14T23:19:43.916Z,18.70
2019-04-14T23:22:15.229Z,18.20
2019-04-14T23:24:43.917Z,18.20
2019-04-14T23:27:11.001Z,18.80
2019-04-14T23:29:38.020Z,19.00
2019-04-14T23:32:05.711Z,19.00
2019-04-14T23:34:32.493Z,19.50
2019-04-14T23:36:59.503Z,18.90
2019-04-14T23:39:26.307Z,19.00
2019-04-14T23:41:53.192Z,19.00
2019-04-14T23:44:20.025Z,19.00
2019-04-14T23:46:47.065Z,19.00
2019-04-14T23:49:13.983Z,19.00
2019-04-14T23:51:40.806Z,19.00
2019-04-14T23:54:07.718Z,19.00
2019-04-14T23:56:34.501Z,19.00
2019-04-14T23:59:01.281Z,19.10
